Terminal Aerodrome Forecast
Issued by NWS

Home | Current Version | Previous Version | Text Only | Print | Product List | Glossary On
Versions: 1 2 3 4 5 6 7 8 9 10 11 12 13
000
FTUS42 KTBW 022328
TAFPGD
TAF
KPGD 022328Z 0300/0324 28007KT P6SM FEW035 SCT250
     FM030300 VRB03KT P6SM SCT250
     FM031800 29006KT P6SM VCTS FEW035CB SCT250
     FM032200 30008KT P6SM SCT035 SCT250=

USA.gov is the U.S. government's official web portal to all federal, state and local government web resources and services.